createdAt,value
2019-03-31T00:02:13.250Z,7.20
2019-03-31T00:04:43.796Z,7.10
2019-03-31T00:07:13.716Z,7.20
2019-03-31T00:09:43.812Z,7.20
2019-03-31T00:12:14.472Z,7.10
2019-03-31T00:14:44.397Z,7.00
2019-03-31T00:17:14.471Z,7.00
2019-03-31T00:20:04.334Z,7.10
2019-03-31T00:22:35.033Z,7.00
2019-03-31T00:25:06.598Z,7.00
2019-03-31T00:27:36.523Z,6.90
2019-03-31T00:30:07.872Z,7.00
2019-03-31T00:32:38.346Z,6.90
2019-03-31T00:35:10.507Z,6.90
2019-03-31T00:37:41.467Z,6.80
2019-03-31T00:40:12.670Z,6.80
2019-03-31T00:42:43.120Z,6.80
2019-03-31T00:45:13.107Z,6.80
2019-03-31T00:47:43.072Z,6.80
2019-03-31T00:50:13.088Z,6.80
2019-03-31T00:52:43.845Z,6.70
2019-03-31T00:55:14.957Z,6.80
2019-03-31T00:57:45.480Z,6.70
2019-03-31T01:00:37.357Z,6.70
2019-03-31T01:03:10.029Z,6.60
2019-03-31T01:05:42.149Z,6.50
2019-03-31T01:08:12.340Z,6.50
2019-03-31T01:10:43.630Z,6.50
2019-03-31T01:13:14.522Z,6.40
2019-03-31T01:15:44.457Z,6.50
2019-03-31T01:18:15.126Z,6.50
2019-03-31T01:20:45.529Z,6.40
2019-03-31T01:23:16.287Z,6.30
2019-03-31T01:25:47.385Z,6.30
2019-03-31T01:28:18.565Z,6.20
2019-03-31T01:30:50.003Z,6.20
2019-03-31T01:33:21.750Z,6.10
2019-03-31T01:35:52.206Z,6.00
2019-03-31T01:38:23.366Z,5.90
2019-03-31T01:40:55.068Z,6.00
2019-03-31T01:43:25.699Z,5.90
2019-03-31T01:45:57.105Z,5.90
2019-03-31T01:48:28.184Z,5.80
2019-03-31T01:50:59.680Z,5.80
2019-03-31T01:53:29.582Z,5.80
2019-03-31T01:56:00.163Z,5.80
2019-03-31T01:58:30.349Z,5.80
2019-03-31T02:01:02.334Z,5.80
2019-03-31T02:03:32.299Z,5.80
2019-03-31T02:06:02.327Z,5.80
2019-03-31T02:08:32.277Z,5.80
2019-03-31T02:11:02.491Z,5.80
2019-03-31T02:13:33.501Z,5.80
2019-03-31T02:16:04.691Z,5.80
2019-03-31T02:18:34.592Z,5.70
2019-03-31T02:21:04.540Z,5.60
2019-03-31T02:23:35.402Z,5.60
2019-03-31T02:26:06.555Z,5.50
2019-03-31T02:28:37.107Z,5.40
2019-03-31T02:31:08.474Z,5.40
2019-03-31T02:33:39.383Z,5.40
2019-03-31T02:36:09.939Z,5.40
2019-03-31T02:38:40.742Z,5.40
2019-03-31T02:41:11.034Z,5.40
2019-03-31T02:43:43.208Z,5.40
2019-03-31T02:46:13.831Z,5.40
2019-03-31T02:48:43.810Z,5.40
2019-03-31T02:51:14.263Z,5.40
2019-03-31T02:53:44.901Z,5.30
2019-03-31T02:56:19.008Z,5.30
2019-03-31T02:58:50.954Z,5.30
2019-03-31T03:01:24.191Z,5.30
2019-03-31T03:03:55.984Z,5.30
2019-03-31T03:06:28.738Z,5.20
2019-03-31T03:09:01.686Z,5.30
2019-03-31T03:11:38.314Z,5.30
2019-03-31T03:14:14.323Z,5.30
2019-03-31T03:16:45.390Z,5.30
2019-03-31T03:19:17.533Z,5.30
2019-03-31T03:21:50.733Z,5.20
2019-03-31T03:24:21.288Z,5.20
2019-03-31T03:27:09.514Z,5.10
2019-03-31T03:29:39.486Z,5.10
2019-03-31T03:32:11.223Z,5.20
2019-03-31T03:34:41.453Z,5.20
2019-03-31T03:37:11.382Z,5.20
2019-03-31T03:39:46.094Z,5.20
2019-03-31T03:42:18.415Z,5.20
2019-03-31T03:44:49.007Z,5.20
2019-03-31T03:47:19.102Z,5.10
2019-03-31T03:49:49.216Z,5.00
2019-03-31T03:52:20.473Z,5.00
2019-03-31T03:54:50.740Z,5.00
2019-03-31T03:57:25.210Z,5.00
2019-03-31T03:59:56.181Z,5.00
2019-03-31T04:02:26.129Z,5.00
2019-03-31T04:04:57.032Z,5.10
2019-03-31T04:07:27.708Z,5.10
2019-03-31T04:09:58.606Z,5.00
2019-03-31T04:12:29.869Z,5.00
2019-03-31T04:15:03.991Z,5.00
2019-03-31T04:17:35.224Z,4.90
2019-03-31T04:20:07.439Z,4.90
2019-03-31T04:22:37.885Z,4.80
2019-03-31T04:25:09.588Z,4.80
2019-03-31T04:27:40.075Z,4.80
2019-03-31T04:30:11.213Z,4.80
2019-03-31T04:32:45.049Z,4.70
2019-03-31T04:35:16.697Z,4.70
2019-03-31T04:37:48.475Z,4.70
2019-03-31T04:40:19.758Z,4.60
2019-03-31T04:42:51.065Z,4.60
2019-03-31T04:45:23.496Z,4.60
2019-03-31T04:47:55.446Z,4.60
2019-03-31T04:50:27.087Z,4.50
2019-03-31T04:52:57.638Z,4.40
2019-03-31T04:55:27.637Z,4.40
2019-03-31T04:58:01.086Z,4.40
2019-03-31T05:00:31.133Z,4.40
2019-03-31T05:03:01.920Z,4.40
2019-03-31T05:05:33.577Z,4.50
2019-03-31T05:08:05.354Z,4.50
2019-03-31T05:10:37.941Z,4.50
2019-03-31T05:13:10.293Z,4.50
2019-03-31T05:15:43.935Z,4.50
2019-03-31T05:18:15.453Z,4.50
2019-03-31T05:20:46.777Z,4.50
2019-03-31T05:23:20.034Z,4.40
2019-03-31T05:25:50.194Z,4.40
2019-03-31T05:28:24.151Z,4.50
2019-03-31T05:30:54.296Z,4.50
2019-03-31T05:33:24.715Z,4.60
2019-03-31T05:35:56.046Z,4.70
2019-03-31T05:38:28.742Z,4.70
2019-03-31T05:40:59.633Z,4.80
2019-03-31T05:43:30.825Z,4.90
2019-03-31T05:46:01.598Z,4.90
2019-03-31T05:48:35.668Z,5.00
2019-03-31T05:51:05.584Z,5.10
2019-03-31T05:53:35.550Z,5.20
2019-03-31T05:56:06.613Z,5.20
2019-03-31T05:58:47.354Z,5.30
2019-03-31T06:01:19.073Z,5.30
2019-03-31T06:03:50.778Z,5.50
2019-03-31T06:06:20.844Z,5.60
2019-03-31T06:08:51.569Z,5.80
2019-03-31T06:11:21.661Z,5.80
2019-03-31T06:13:53.439Z,5.80
2019-03-31T06:16:24.424Z,5.90
2019-03-31T06:18:54.644Z,6.00
2019-03-31T06:21:24.833Z,6.10
2019-03-31T06:23:55.097Z,6.20
2019-03-31T06:26:25.327Z,6.30
2019-03-31T06:28:56.252Z,6.40
2019-03-31T06:31:26.256Z,6.50
2019-03-31T06:34:00.122Z,6.50
2019-03-31T06:36:30.152Z,6.70
2019-03-31T06:39:00.387Z,6.70
2019-03-31T06:41:31.269Z,6.90
2019-03-31T06:44:03.421Z,6.90
2019-03-31T06:46:33.370Z,7.10
2019-03-31T06:49:03.417Z,7.20
2019-03-31T06:51:33.493Z,7.30
2019-03-31T06:54:03.688Z,7.40
2019-03-31T06:56:34.088Z,7.50
2019-03-31T06:59:05.504Z,7.80
2019-03-31T07:01:36.746Z,8.50
2019-03-31T07:04:07.073Z,10.00
2019-03-31T07:06:37.840Z,12.30
2019-03-31T07:09:09.418Z,14.90
2019-03-31T07:11:39.380Z,16.80
2019-03-31T07:14:10.320Z,17.70
2019-03-31T07:16:40.264Z,18.70
2019-03-31T07:19:10.265Z,19.50
2019-03-31T07:21:41.288Z,20.20
2019-03-31T07:24:11.749Z,19.90
2019-03-31T07:26:43.855Z,20.60
2019-03-31T07:29:17.988Z,22.00
2019-03-31T07:34:18.520Z,23.90
2019-03-31T07:36:48.968Z,24.90
2019-03-31T07:39:20.380Z,25.80
2019-03-31T07:41:54.015Z,26.00
2019-03-31T07:44:28.956Z,26.20
2019-03-31T07:47:01.114Z,26.80
2019-03-31T07:49:36.365Z,27.20
2019-03-31T07:52:06.819Z,27.90
2019-03-31T07:54:37.061Z,27.80
2019-03-31T07:57:09.279Z,28.40
2019-03-31T07:59:41.867Z,28.80
2019-03-31T08:02:11.998Z,29.60
2019-03-31T08:04:42.345Z,28.80
2019-03-31T08:07:12.369Z,29.20
2019-03-31T08:09:44.651Z,29.90
2019-03-31T08:12:18.170Z,30.60
2019-03-31T08:14:54.521Z,30.90
2019-03-31T08:17:25.796Z,31.40
2019-03-31T08:19:56.705Z,31.30
2019-03-31T08:22:29.487Z,31.20
2019-03-31T08:27:32.459Z,32.20
2019-03-31T08:30:02.182Z,32.60
2019-03-31T08:32:34.361Z,32.90
2019-03-31T08:35:06.727Z,33.30
2019-03-31T08:37:37.619Z,33.70
2019-03-31T08:40:10.169Z,34.30
2019-03-31T08:42:40.498Z,35.00
2019-03-31T08:45:14.812Z,35.10
2019-03-31T08:47:45.272Z,35.30
2019-03-31T08:50:18.221Z,35.40
2019-03-31T08:52:50.177Z,35.60
2019-03-31T08:55:20.797Z,35.30
2019-03-31T08:57:54.483Z,35.30
2019-03-31T09:00:48.166Z,35.60
2019-03-31T09:03:18.970Z,35.50
2019-03-31T09:06:01.504Z,35.80
2019-03-31T09:08:23.520Z,36.00
2019-03-31T09:10:53.836Z,35.90
2019-03-31T09:13:23.749Z,36.10
2019-03-31T09:15:55.433Z,36.00
2019-03-31T09:18:27.975Z,36.20
2019-03-31T09:21:01.150Z,36.70
2019-03-31T09:23:33.812Z,36.50
2019-03-31T09:26:04.150Z,36.60
2019-03-31T09:28:35.829Z,36.80
2019-03-31T09:31:06.513Z,36.30
2019-03-31T09:33:39.605Z,36.20
2019-03-31T09:36:16.483Z,35.60
2019-03-31T09:38:43.712Z,35.30
2019-03-31T09:41:14.049Z,35.30
2019-03-31T09:43:44.144Z,35.40
2019-03-31T09:46:15.789Z,35.90
2019-03-31T09:48:45.669Z,36.20
2019-03-31T09:51:16.713Z,35.90
2019-03-31T09:53:46.664Z,35.70
2019-03-31T09:56:17.638Z,35.70
2019-03-31T09:58:47.559Z,35.60
2019-03-31T10:01:21.839Z,35.20
2019-03-31T10:03:51.758Z,33.90
2019-03-31T10:06:30.351Z,33.30
2019-03-31T10:08:58.176Z,32.70
2019-03-31T10:11:32.638Z,31.70
2019-03-31T10:14:02.677Z,31.40
2019-03-31T10:16:34.546Z,30.70
2019-03-31T10:19:04.486Z,29.30
2019-03-31T10:21:39.316Z,27.80
2019-03-31T10:24:09.384Z,25.80
2019-03-31T10:26:42.710Z,24.00
2019-03-31T10:29:13.024Z,23.10
2019-03-31T10:31:43.721Z,22.70
2019-03-31T10:34:13.860Z,22.30
2019-03-31T10:36:45.041Z,21.80
2019-03-31T10:39:16.487Z,21.40
2019-03-31T10:41:47.099Z,20.90
2019-03-31T10:44:18.117Z,20.40
2019-03-31T10:46:48.647Z,19.90
2019-03-31T10:49:18.655Z,19.70
2019-03-31T10:51:48.591Z,19.70
2019-03-31T10:54:18.638Z,19.70
2019-03-31T10:56:49.114Z,19.70
2019-03-31T10:59:25.489Z,19.50
2019-03-31T11:01:55.783Z,19.20
2019-03-31T11:04:25.955Z,19.10
2019-03-31T11:06:59.524Z,19.00
2019-03-31T11:09:37.814Z,19.00
2019-03-31T11:12:07.775Z,18.90
2019-03-31T11:14:38.757Z,18.70
2019-03-31T11:17:10.209Z,18.70
2019-03-31T11:19:40.540Z,18.60
2019-03-31T11:22:38.420Z,18.70
2019-03-31T11:25:20.164Z,18.70
2019-03-31T11:27:43.705Z,18.80
2019-03-31T11:30:13.063Z,18.80
2019-03-31T11:32:44.304Z,18.80
2019-03-31T11:35:14.838Z,18.70
2019-03-31T11:37:45.233Z,18.60
2019-03-31T11:40:16.929Z,18.60
2019-03-31T11:42:46.844Z,18.70
2019-03-31T11:45:17.750Z,18.80
2019-03-31T11:47:47.681Z,18.90
2019-03-31T11:50:18.671Z,18.80
2019-03-31T11:52:49.906Z,18.80
2019-03-31T11:55:20.709Z,18.80
2019-03-31T11:57:50.713Z,18.80
2019-03-31T12:00:21.233Z,18.90
2019-03-31T12:02:52.127Z,19.10
2019-03-31T12:05:21.988Z,19.10
2019-03-31T12:07:52.320Z,19.20
2019-03-31T12:10:22.240Z,19.10
2019-03-31T12:12:52.661Z,19.10
2019-03-31T12:15:22.630Z,19.00
2019-03-31T12:17:52.588Z,19.10
2019-03-31T12:20:24.004Z,19.00
2019-03-31T12:22:54.488Z,19.00
2019-03-31T12:25:24.520Z,18.90
2019-03-31T12:27:54.520Z,19.00
2019-03-31T12:30:31.041Z,18.90
2019-03-31T12:33:01.647Z,18.80
2019-03-31T12:35:32.289Z,18.60
2019-03-31T12:38:04.330Z,18.60
2019-03-31T12:40:36.442Z,18.60
2019-03-31T12:43:07.111Z,18.80
2019-03-31T12:45:37.854Z,18.90
2019-03-31T12:48:08.463Z,19.00
2019-03-31T12:50:38.471Z,19.00
2019-03-31T12:53:09.377Z,19.00
2019-03-31T12:55:40.728Z,18.90
2019-03-31T12:58:10.790Z,18.90
2019-03-31T13:00:40.802Z,19.00
2019-03-31T13:03:10.900Z,19.00
2019-03-31T13:05:41.714Z,19.00
2019-03-31T13:08:13.594Z,19.10
2019-03-31T13:10:48.983Z,18.90
2019-03-31T13:13:21.669Z,18.90
2019-03-31T13:15:51.617Z,19.00
2019-03-31T13:18:21.785Z,19.10
2019-03-31T13:20:51.729Z,19.20
2019-03-31T13:23:22.337Z,19.30
2019-03-31T13:25:52.256Z,19.20
2019-03-31T13:28:22.174Z,19.20
2019-03-31T13:30:54.005Z,19.20
2019-03-31T13:33:24.246Z,19.00
2019-03-31T13:35:56.570Z,19.00
2019-03-31T13:38:26.979Z,19.10
2019-03-31T13:40:57.313Z,19.10
2019-03-31T13:43:28.162Z,18.90
2019-03-31T13:46:00.124Z,18.90
2019-03-31T13:48:29.909Z,19.00
2019-03-31T13:51:04.928Z,19.00
2019-03-31T13:53:35.625Z,19.10
2019-03-31T13:56:06.687Z,19.00
2019-03-31T13:58:38.767Z,19.00
2019-03-31T14:01:11.640Z,18.90
2019-03-31T14:03:45.561Z,18.90
2019-03-31T14:06:20.510Z,19.00
2019-03-31T14:08:52.136Z,18.90
2019-03-31T14:11:23.438Z,18.90
2019-03-31T14:13:56.099Z,19.00
2019-03-31T14:16:29.183Z,19.00
2019-03-31T14:19:01.330Z,19.00
2019-03-31T14:21:40.105Z,19.10
2019-03-31T14:24:13.262Z,19.20
2019-03-31T14:26:47.864Z,19.30
2019-03-31T14:29:19.790Z,19.10
2019-03-31T14:31:52.257Z,19.00
2019-03-31T14:34:22.623Z,18.90
2019-03-31T14:36:53.662Z,19.00
2019-03-31T14:39:25.234Z,18.90
2019-03-31T14:41:56.159Z,18.80
2019-03-31T14:44:26.685Z,18.70
2019-03-31T14:46:57.782Z,18.60
2019-03-31T14:49:29.151Z,18.60
2019-03-31T14:52:01.385Z,18.60
2019-03-31T14:54:32.560Z,18.60
2019-03-31T14:57:02.507Z,18.60
2019-03-31T14:59:35.564Z,18.70
2019-03-31T15:02:07.699Z,18.60
2019-03-31T15:04:40.590Z,18.60
2019-03-31T15:07:14.240Z,18.70
2019-03-31T15:09:44.584Z,18.70
2019-03-31T15:12:17.053Z,18.80
2019-03-31T15:14:48.811Z,18.80
2019-03-31T15:17:21.535Z,18.70
2019-03-31T15:19:54.293Z,18.70
2019-03-31T15:22:25.145Z,18.60
2019-03-31T15:24:55.609Z,18.50
2019-03-31T15:27:29.364Z,18.40
2019-03-31T15:30:00.815Z,18.50
2019-03-31T15:32:34.458Z,18.40
2019-03-31T15:35:05.004Z,18.40
2019-03-31T15:37:38.542Z,18.30
2019-03-31T15:40:08.548Z,18.30
2019-03-31T15:42:39.998Z,18.20
2019-03-31T15:45:10.600Z,18.30
2019-03-31T15:47:42.110Z,18.20
2019-03-31T15:50:13.617Z,18.30
2019-03-31T15:52:44.508Z,18.30
2019-03-31T15:55:15.513Z,18.30
2019-03-31T15:57:46.367Z,18.20
2019-03-31T16:00:19.012Z,18.20
2019-03-31T16:02:52.690Z,18.20
2019-03-31T16:05:26.133Z,18.30
2019-03-31T16:07:55.664Z,18.30
2019-03-31T16:10:25.242Z,18.30
2019-03-31T16:12:55.201Z,18.30
2019-03-31T16:15:25.049Z,18.20
2019-03-31T16:17:57.588Z,18.10
2019-03-31T16:20:26.996Z,18.00
2019-03-31T16:22:56.565Z,17.90
2019-03-31T16:25:39.192Z,17.90
2019-03-31T16:28:08.761Z,17.90
2019-03-31T16:30:39.113Z,17.90
2019-03-31T16:33:08.539Z,17.80
2019-03-31T16:35:37.919Z,17.80
2019-03-31T16:38:07.316Z,17.70
2019-03-31T16:40:37.084Z,17.70
2019-03-31T16:43:06.491Z,17.60
2019-03-31T16:45:36.092Z,17.50
2019-03-31T16:48:07.204Z,17.50
2019-03-31T16:50:36.605Z,17.40
2019-03-31T16:53:06.113Z,17.20
2019-03-31T16:55:35.737Z,17.20
2019-03-31T16:58:09.614Z,17.10
2019-03-31T17:00:39.940Z,17.10
2019-03-31T17:03:09.753Z,17.00
2019-03-31T17:05:39.173Z,16.90
2019-03-31T17:08:11.151Z,16.90
2019-03-31T17:10:40.572Z,16.80
2019-03-31T17:13:09.970Z,16.70
2019-03-31T17:15:39.358Z,16.70
2019-03-31T17:18:08.801Z,16.50
2019-03-31T17:20:38.232Z,16.40
2019-03-31T17:23:08.175Z,16.30
2019-03-31T17:25:38.329Z,16.10
2019-03-31T17:28:10.192Z,16.00
2019-03-31T17:30:38.847Z,15.90
2019-03-31T17:33:11.146Z,15.80
2019-03-31T17:35:40.858Z,15.70
2019-03-31T17:38:13.719Z,15.60
2019-03-31T17:40:44.165Z,15.40
2019-03-31T17:43:13.745Z,15.30
2019-03-31T17:45:47.751Z,15.20
2019-03-31T17:48:17.719Z,15.10
2019-03-31T17:50:47.315Z,15.00
2019-03-31T17:53:18.898Z,14.80
2019-03-31T17:55:48.797Z,14.60
2019-03-31T17:58:18.601Z,14.50
2019-03-31T18:00:53.542Z,14.50
2019-03-31T18:03:23.611Z,14.40
2019-03-31T18:05:54.033Z,14.30
2019-03-31T18:08:28.663Z,14.10
2019-03-31T18:11:03.035Z,14.10
2019-03-31T18:13:32.745Z,14.00
2019-03-31T18:16:02.142Z,13.90
2019-03-31T18:18:32.122Z,13.90
2019-03-31T18:21:02.844Z,13.80
2019-03-31T18:23:32.672Z,13.70
2019-03-31T18:26:02.173Z,13.70
2019-03-31T18:28:32.260Z,13.50
2019-03-31T18:31:02.022Z,13.50
2019-03-31T18:33:31.970Z,13.40
2019-03-31T18:36:02.088Z,13.30
2019-03-31T18:38:36.169Z,13.20
2019-03-31T18:41:10.542Z,13.20
2019-03-31T18:43:50.562Z,13.20
2019-03-31T18:46:11.001Z,13.10
2019-03-31T18:48:40.917Z,13.10
2019-03-31T18:51:11.398Z,13.00
2019-03-31T18:54:00.530Z,12.90
2019-03-31T18:56:46.328Z,12.90
2019-03-31T18:59:35.901Z,12.80
2019-03-31T19:02:16.919Z,12.80
2019-03-31T19:05:09.682Z,12.80
2019-03-31T19:08:11.247Z,12.70
2019-03-31T19:11:14.934Z,12.60
2019-03-31T19:13:58.766Z,12.60
2019-03-31T19:16:46.225Z,12.50
2019-03-31T19:19:42.205Z,12.30
2019-03-31T19:22:30.430Z,12.30
2019-03-31T19:25:18.389Z,12.30
2019-03-31T19:28:05.959Z,12.30
2019-03-31T19:30:54.175Z,12.20
2019-03-31T19:33:42.693Z,12.10
2019-03-31T19:36:28.887Z,12.00
2019-03-31T19:39:28.234Z,12.00
2019-03-31T19:42:19.655Z,11.90
2019-03-31T19:44:58.845Z,11.90
2019-03-31T19:47:40.555Z,11.90
2019-03-31T19:50:30.476Z,11.80
2019-03-31T19:53:25.825Z,11.80
2019-03-31T19:56:12.893Z,11.80
2019-03-31T19:59:04.274Z,11.70
2019-03-31T20:02:01.449Z,11.70
2019-03-31T20:04:58.934Z,11.60
2019-03-31T20:07:51.601Z,11.60
2019-03-31T20:10:44.851Z,11.60
2019-03-31T20:13:36.932Z,11.50
2019-03-31T20:16:24.720Z,11.50
2019-03-31T20:19:16.518Z,11.50
2019-03-31T20:21:54.702Z,11.40
2019-03-31T20:24:55.764Z,11.40
2019-03-31T20:27:36.913Z,11.40
2019-03-31T20:30:18.205Z,11.40
2019-03-31T20:33:15.400Z,11.40
2019-03-31T20:36:07.386Z,11.30
2019-03-31T20:38:55.568Z,11.40
2019-03-31T20:41:49.140Z,11.30
2019-03-31T20:44:23.414Z,11.30
2019-03-31T20:46:56.300Z,11.20
2019-03-31T20:49:26.824Z,11.10
2019-03-31T20:51:56.243Z,10.90
2019-03-31T20:54:27.242Z,10.70
2019-03-31T20:56:57.414Z,10.60
2019-03-31T20:59:27.013Z,10.50
2019-03-31T21:01:58.419Z,10.40
2019-03-31T21:04:28.273Z,10.40
2019-03-31T21:06:58.516Z,10.40
2019-03-31T21:09:28.778Z,10.30
2019-03-31T21:11:58.254Z,10.30
2019-03-31T21:14:28.275Z,10.30
2019-03-31T21:16:57.841Z,10.10
2019-03-31T21:19:28.520Z,10.00
2019-03-31T21:21:58.466Z,10.00
2019-03-31T21:24:28.524Z,9.90
2019-03-31T21:26:59.257Z,9.90
2019-03-31T21:29:28.629Z,9.90
2019-03-31T21:31:58.032Z,9.90
2019-03-31T21:34:28.493Z,9.80
2019-03-31T21:36:58.773Z,9.80
2019-03-31T21:39:28.834Z,9.70
2019-03-31T21:41:58.233Z,9.60
2019-03-31T21:44:28.192Z,9.50
2019-03-31T21:46:57.585Z,9.50
2019-03-31T21:49:27.109Z,9.50
2019-03-31T21:51:56.768Z,9.50
2019-03-31T21:54:27.196Z,9.40
2019-03-31T21:56:57.781Z,9.40
2019-03-31T21:59:27.430Z,9.40
2019-03-31T22:01:57.783Z,9.40
2019-03-31T22:04:31.405Z,9.30
2019-03-31T22:07:01.692Z,9.30
2019-03-31T22:09:32.041Z,9.30
2019-03-31T22:12:02.434Z,9.30
2019-03-31T22:14:32.372Z,9.20
2019-03-31T22:17:05.287Z,9.20
2019-03-31T22:19:35.088Z,9.10
2019-03-31T22:22:05.151Z,9.20
2019-03-31T22:24:35.509Z,9.10
2019-03-31T22:27:05.556Z,9.20
2019-03-31T22:29:35.473Z,9.20
2019-03-31T22:32:04.865Z,9.10
2019-03-31T22:34:36.013Z,9.00
2019-03-31T22:37:06.194Z,9.00
2019-03-31T22:39:36.277Z,8.90
2019-03-31T22:42:06.272Z,8.90
2019-03-31T22:44:35.964Z,8.80
2019-03-31T22:47:05.628Z,8.80
2019-03-31T22:49:35.290Z,8.70
2019-03-31T22:52:05.251Z,8.70
2019-03-31T22:54:34.591Z,8.70
2019-03-31T22:57:04.041Z,8.60
2019-03-31T22:59:33.440Z,8.50
2019-03-31T23:02:03.581Z,8.50
2019-03-31T23:04:33.959Z,8.40
2019-03-31T23:07:03.341Z,8.40
2019-03-31T23:09:34.394Z,8.30
2019-03-31T23:12:03.959Z,8.30
2019-03-31T23:14:33.309Z,8.30
2019-03-31T23:17:02.711Z,8.10
2019-03-31T23:19:33.799Z,8.10
2019-03-31T23:22:03.618Z,8.00
2019-03-31T23:24:33.056Z,8.00
2019-03-31T23:27:02.986Z,7.90
2019-03-31T23:29:34.043Z,7.90
2019-03-31T23:32:03.377Z,7.90
2019-03-31T23:34:32.853Z,8.00
2019-03-31T23:37:02.320Z,8.00
2019-03-31T23:39:31.716Z,8.00
2019-03-31T23:42:01.133Z,7.90
2019-03-31T23:44:30.572Z,7.90
2019-03-31T23:47:02.392Z,7.90
2019-03-31T23:49:32.384Z,8.00
2019-03-31T23:52:02.587Z,8.00
2019-03-31T23:54:31.957Z,8.00
2019-03-31T23:57:01.431Z,8.00
2019-03-31T23:59:30.857Z,8.00
